createdAt,value
2023-09-10T00:00:47.240Z,20.57
2023-09-10T00:04:49.297Z,20.52
2023-09-10T00:08:51.745Z,20.52
2023-09-10T00:14:20.861Z,20.50
2023-09-10T00:18:30.143Z,20.45
2023-09-10T00:27:06.707Z,20.34
2023-09-10T00:31:09.373Z,20.31
2023-09-10T00:35:11.941Z,20.25
2023-09-10T00:39:13.760Z,20.24
2023-09-10T00:43:16.756Z,20.22
2023-09-10T00:47:18.875Z,20.19
2023-09-10T00:51:20.748Z,20.19
2023-09-10T00:55:23.793Z,20.16
2023-09-10T00:59:27.526Z,20.17
2023-09-10T01:03:32.133Z,20.16
2023-09-10T01:07:35.770Z,20.14
2023-09-10T01:11:52.007Z,20.12
2023-09-10T01:16:03.222Z,20.12
2023-09-10T01:20:28.119Z,20.13
2023-09-10T01:24:52.264Z,20.11
2023-09-10T01:28:54.126Z,20.12
2023-09-10T01:33:07.073Z,20.11
2023-09-10T01:37:19.617Z,20.05
2023-09-10T01:41:22.414Z,19.98
2023-09-10T01:45:24.234Z,19.92
2023-09-10T01:49:27.036Z,19.91
2023-09-10T01:53:28.784Z,19.87
2023-09-10T01:57:30.604Z,19.82
2023-09-10T02:01:32.397Z,19.82
2023-09-10T02:05:34.335Z,19.78
2023-09-10T02:09:36.715Z,19.74
2023-09-10T02:13:39.272Z,19.76
2023-09-10T02:17:41.468Z,19.74
2023-09-10T02:21:43.454Z,19.70
2023-09-10T02:25:45.332Z,19.67
2023-09-10T02:34:59.613Z,19.63
2023-09-10T02:39:12.440Z,19.60
2023-09-10T02:43:14.239Z,19.55
2023-09-10T02:47:18.411Z,19.49
2023-09-10T02:51:20.734Z,19.49
2023-09-10T02:55:23.444Z,19.50
2023-09-10T02:59:28.470Z,19.49
2023-09-10T03:03:30.605Z,19.45
2023-09-10T03:07:33.686Z,19.41
2023-09-10T03:11:38.770Z,19.39
2023-09-10T03:15:41.155Z,19.37
2023-09-10T03:19:44.569Z,19.37
2023-09-10T03:23:47.541Z,19.32
2023-09-10T03:27:49.276Z,19.30
2023-09-10T03:31:51.446Z,19.27
2023-09-10T03:35:53.958Z,19.23
2023-09-10T03:39:55.938Z,19.21
2023-09-10T03:43:58.438Z,19.18
2023-09-10T03:48:00.620Z,19.14
2023-09-10T03:52:15.692Z,19.13
2023-09-10T03:56:17.569Z,19.06
2023-09-10T04:00:20.509Z,18.87
2023-09-10T04:04:22.615Z,18.71
2023-09-10T04:08:28.467Z,18.60
2023-09-10T04:12:38.467Z,18.50
2023-09-10T04:16:40.880Z,18.42
2023-09-10T04:20:42.721Z,18.33
2023-09-10T04:38:56.990Z,18.03
2023-09-10T04:43:24.096Z,17.95
2023-09-10T04:47:29.548Z,17.90
2023-09-10T04:56:57.083Z,17.87
2023-09-10T05:01:01.814Z,17.89
2023-09-10T05:05:06.680Z,17.98
2023-09-10T05:09:09.837Z,18.01
2023-09-10T05:13:12.029Z,18.04
2023-09-10T05:17:14.138Z,18.06
2023-09-10T05:21:16.191Z,18.07
2023-09-10T05:25:19.016Z,18.05
2023-09-10T05:29:22.183Z,17.99
2023-09-10T05:33:24.665Z,18.02
2023-09-10T05:37:32.998Z,18.09
2023-09-10T05:41:34.859Z,18.14
2023-09-10T05:45:36.690Z,18.24
2023-09-10T05:49:39.015Z,18.30
2023-09-10T05:53:43.736Z,18.34
2023-09-10T06:02:16.848Z,18.42
2023-09-10T06:10:59.619Z,18.50
2023-09-10T06:15:02.325Z,18.54
2023-09-10T06:19:04.628Z,18.52
2023-09-10T06:23:06.632Z,18.60
2023-09-10T06:27:08.701Z,18.70
2023-09-10T06:31:10.655Z,18.75
2023-09-10T06:35:12.636Z,18.83
2023-09-10T06:39:14.671Z,18.93
2023-09-10T06:43:16.495Z,19.02
2023-09-10T06:47:40.567Z,19.12
2023-09-10T06:51:42.893Z,19.26
2023-09-10T06:55:44.667Z,19.37
2023-09-10T06:59:46.486Z,19.50
2023-09-10T07:03:52.233Z,19.62
2023-09-10T07:07:54.730Z,19.71
2023-09-10T07:11:56.585Z,19.80
2023-09-10T07:15:59.293Z,20.01
2023-09-10T07:20:01.300Z,20.18
2023-09-10T07:24:07.735Z,20.40
2023-09-10T07:28:09.659Z,20.61
2023-09-10T07:32:14.808Z,20.86
2023-09-10T07:36:16.770Z,21.09
2023-09-10T07:40:18.439Z,21.33
2023-09-10T07:44:22.231Z,21.60
2023-09-10T07:48:25.880Z,21.90
2023-09-10T07:52:27.997Z,22.18
2023-09-10T07:56:42.876Z,22.52
2023-09-10T08:00:46.015Z,22.90
2023-09-10T08:04:47.752Z,23.13
2023-09-10T08:08:55.712Z,23.37
2023-09-10T08:13:01.963Z,23.66
2023-09-10T08:17:17.353Z,23.94
2023-09-10T08:21:45.571Z,24.18
2023-09-10T08:26:29.952Z,24.48
2023-09-10T08:30:32.438Z,24.71
2023-09-10T08:34:34.412Z,24.86
2023-09-10T08:38:36.740Z,24.96
2023-09-10T08:42:59.479Z,25.21
2023-09-10T08:47:19.022Z,25.55
2023-09-10T08:51:27.922Z,25.72
2023-09-10T08:55:36.991Z,25.97
2023-09-10T08:59:40.480Z,26.18
2023-09-10T09:04:04.804Z,26.27
2023-09-10T09:08:17.131Z,26.47
2023-09-10T09:12:21.944Z,26.67
2023-09-10T09:16:24.065Z,26.92
2023-09-10T09:20:31.094Z,27.15
2023-09-10T09:24:35.110Z,27.38
2023-09-10T09:28:37.669Z,27.66
2023-09-10T09:32:41.023Z,27.99
2023-09-10T09:37:12.500Z,28.03
2023-09-10T09:41:20.439Z,28.18
2023-09-10T09:50:02.622Z,28.54
2023-09-10T09:59:14.613Z,28.75
2023-09-10T10:03:23.745Z,29.07
2023-09-10T10:11:52.516Z,29.30
2023-09-10T10:25:53.595Z,29.75
2023-09-10T10:29:56.089Z,30.06
2023-09-10T10:34:09.312Z,30.24
2023-09-10T10:38:22.831Z,30.55
2023-09-10T10:42:55.912Z,30.78
2023-09-10T10:47:17.650Z,30.87
2023-09-10T10:51:53.377Z,30.98
2023-09-10T11:05:17.562Z,31.64
2023-09-10T11:09:35.610Z,31.82
2023-09-10T11:18:35.926Z,31.92
2023-09-10T11:23:08.022Z,31.98
2023-09-10T11:27:23.930Z,32.10
2023-09-10T11:31:34.759Z,32.37
2023-09-10T11:35:39.572Z,32.56
2023-09-10T11:39:41.627Z,32.70
2023-09-10T11:43:43.566Z,33.08
2023-09-10T11:47:49.325Z,33.66
2023-09-10T11:51:54.026Z,34.35
2023-09-10T11:56:22.169Z,35.03
2023-09-10T12:00:24.958Z,35.47
2023-09-10T12:14:30.755Z,35.85
2023-09-10T12:19:11.676Z,36.21
2023-09-10T12:23:14.987Z,36.50
2023-09-10T12:31:54.672Z,36.86
2023-09-10T12:36:23.352Z,37.65
2023-09-10T12:40:40.482Z,38.05
2023-09-10T12:49:19.371Z,38.80
2023-09-10T12:53:23.194Z,39.27
2023-09-10T12:58:06.759Z,39.83
2023-09-10T13:02:48.017Z,40.21
2023-09-10T13:06:51.568Z,40.27
2023-09-10T13:10:53.604Z,40.45
2023-09-10T13:14:55.766Z,40.68
2023-09-10T13:18:57.975Z,40.37
2023-09-10T13:23:00.444Z,39.49
2023-09-10T13:27:02.394Z,38.62
2023-09-10T13:31:04.219Z,37.70
2023-09-10T13:35:06.989Z,37.33
2023-09-10T13:39:08.859Z,37.90
2023-09-10T13:43:54.902Z,38.92
2023-09-10T13:48:06.939Z,39.58
2023-09-10T13:52:21.066Z,40.02
2023-09-10T13:56:34.116Z,40.55
2023-09-10T14:00:41.971Z,40.91
2023-09-10T14:04:47.325Z,40.16
2023-09-10T14:08:52.090Z,38.62
2023-09-10T14:13:07.982Z,37.15
2023-09-10T14:17:43.519Z,36.18
2023-09-10T14:22:09.124Z,35.51
2023-09-10T14:26:20.448Z,35.13
2023-09-10T14:30:22.500Z,34.96
2023-09-10T14:39:05.861Z,35.36
2023-09-10T14:43:09.572Z,35.09
2023-09-10T14:47:11.725Z,35.06
2023-09-10T14:51:13.810Z,34.90
2023-09-10T14:55:15.829Z,34.78
2023-09-10T14:59:20.432Z,34.35
2023-09-10T15:03:23.237Z,34.22
2023-09-10T15:07:25.436Z,34.32
2023-09-10T15:11:27.647Z,34.07
2023-09-10T15:15:30.103Z,33.65
2023-09-10T15:19:32.166Z,33.41
2023-09-10T15:23:34.236Z,33.39
2023-09-10T15:27:37.081Z,32.98
2023-09-10T15:31:39.204Z,32.98
2023-09-10T15:35:42.837Z,33.54
2023-09-10T15:39:45.981Z,33.43
2023-09-10T15:43:48.037Z,32.73
2023-09-10T15:47:49.912Z,32.19
2023-09-10T15:51:51.773Z,31.79
2023-09-10T15:55:53.437Z,31.46
2023-09-10T15:59:55.302Z,31.18
2023-09-10T16:03:57.606Z,30.99
2023-09-10T16:07:59.577Z,31.03
2023-09-10T16:12:01.483Z,30.84
2023-09-10T16:16:03.930Z,30.64
2023-09-10T16:20:06.574Z,30.37
2023-09-10T16:24:08.577Z,30.15
2023-09-10T16:28:10.281Z,30.03
2023-09-10T16:32:13.048Z,30.08
2023-09-10T16:36:14.851Z,29.93
2023-09-10T16:40:16.697Z,29.64
2023-09-10T16:44:19.811Z,29.37
2023-09-10T16:48:21.634Z,29.13
2023-09-10T16:52:23.443Z,28.90
2023-09-10T16:56:25.243Z,28.69
2023-09-10T17:00:27.037Z,28.46
2023-09-10T17:04:29.623Z,28.25
2023-09-10T17:08:32.137Z,28.04
2023-09-10T17:12:34.766Z,27.80
2023-09-10T17:16:36.531Z,27.60
2023-09-10T17:20:38.378Z,27.37
2023-09-10T17:24:40.142Z,27.19
2023-09-10T17:28:41.881Z,27.00
2023-09-10T17:32:43.845Z,26.78
2023-09-10T17:36:47.706Z,26.58
2023-09-10T17:40:49.571Z,26.33
2023-09-10T17:44:52.851Z,26.11
2023-09-10T17:48:54.567Z,25.90
2023-09-10T17:52:59.764Z,25.67
2023-09-10T17:57:01.728Z,25.50
2023-09-10T18:01:04.264Z,25.32
2023-09-10T18:05:07.084Z,25.19
2023-09-10T18:09:09.588Z,25.04
2023-09-10T18:13:15.009Z,24.91
2023-09-10T18:17:17.036Z,24.76
2023-09-10T18:21:19.976Z,24.62
2023-09-10T18:25:21.810Z,24.44
2023-09-10T18:29:23.623Z,24.33
2023-09-10T18:33:25.529Z,24.27
2023-09-10T18:37:27.266Z,24.26
2023-09-10T18:41:29.805Z,24.22
2023-09-10T18:45:33.081Z,24.19
2023-09-10T18:49:35.324Z,24.16
2023-09-10T18:53:37.232Z,24.15
2023-09-10T18:57:40.135Z,24.07
2023-09-10T19:01:42.071Z,24.02
2023-09-10T19:05:44.231Z,23.98
2023-09-10T19:09:47.619Z,23.93
2023-09-10T19:13:50.001Z,23.89
2023-09-10T19:17:52.582Z,23.87
2023-09-10T19:21:55.635Z,23.86
2023-09-10T19:25:57.417Z,23.84
2023-09-10T19:29:59.163Z,23.79
2023-09-10T19:34:04.225Z,23.76
2023-09-10T19:38:06.174Z,23.71
2023-09-10T19:42:07.957Z,23.66
2023-09-10T19:46:09.658Z,23.63
2023-09-10T19:50:12.358Z,23.54
2023-09-10T19:54:14.294Z,23.46
2023-09-10T19:58:16.038Z,23.38
2023-09-10T20:02:18.082Z,23.31
2023-09-10T20:06:19.868Z,23.28
2023-09-10T20:10:22.055Z,23.26
2023-09-10T20:14:25.819Z,23.26
2023-09-10T20:18:27.676Z,23.22
2023-09-10T20:22:29.859Z,23.19
2023-09-10T20:26:33.101Z,23.16
2023-09-10T20:30:36.681Z,23.12
2023-09-10T20:34:38.583Z,23.08
2023-09-10T20:38:40.760Z,23.08
2023-09-10T20:42:42.620Z,23.06
2023-09-10T20:46:45.027Z,23.03
2023-09-10T20:50:46.905Z,23.02
2023-09-10T20:54:49.007Z,23.00
2023-09-10T20:58:51.060Z,22.97
2023-09-10T21:03:17.872Z,22.93
2023-09-10T21:07:29.005Z,22.89
2023-09-10T21:11:36.153Z,22.84
2023-09-10T21:15:39.628Z,22.77
2023-09-10T21:19:41.694Z,22.70
2023-09-10T21:23:44.070Z,22.65
2023-09-10T21:27:46.193Z,22.63
2023-09-10T21:31:52.565Z,22.60
2023-09-10T21:36:15.089Z,22.57
2023-09-10T21:40:29.072Z,22.59
2023-09-10T21:44:33.705Z,22.57
2023-09-10T21:48:38.524Z,22.53
2023-09-10T21:52:52.930Z,22.51
2023-09-10T21:57:00.974Z,22.48
2023-09-10T22:01:02.928Z,22.47
2023-09-10T22:05:22.735Z,22.46
2023-09-10T22:20:19.364Z,22.17
2023-09-10T22:24:26.201Z,22.03
2023-09-10T22:33:33.649Z,21.76
2023-09-10T22:38:14.607Z,21.68
2023-09-10T22:42:17.184Z,21.54
2023-09-10T22:46:19.155Z,21.45
2023-09-10T22:50:22.267Z,21.34
2023-09-10T22:54:25.171Z,21.27
2023-09-10T22:58:28.751Z,21.18
2023-09-10T23:02:33.264Z,21.12
2023-09-10T23:06:41.456Z,21.09
2023-09-10T23:58:54.210Z,20.46
